Time;durP1;ratioP1;P1;durP2;ratioP2;P2;SDS_P1;SDS_P2;PMS_P1;PMS_P2;Temp;Humidity;BMP_temperature;BMP_pressure;BME280_temperature;BME280_humidity;BME280_pressure;Samples;Min_cycle;Max_cycle;Signal;HPM_P1;HPM_P2
2021/04/08 00:02:04;;;;;;;12.77;4.27;;;4.20;81.00;;;;;;5030976;28;20091;-74
2021/04/08 00:04:30;;;;;;;9.80;3.10;;;4.20;80.80;;;;;;5031985;28;20029;-74
2021/04/08 00:06:56;;;;;;;8.83;2.70;;;4.20;80.60;;;;;;5046336;28;20054;-74
2021/04/08 00:09:22;;;;;;;8.80;3.00;;;4.20;80.60;;;;;;5046562;28;20044;-75
2021/04/08 00:11:48;;;;;;;8.00;2.00;;;4.10;80.50;;;;;;5030906;28;20125;-74
2021/04/08 00:14:14;;;;;;;9.23;2.23;;;4.10;80.40;;;;;;5047155;28;20112;-74
2021/04/08 00:16:40;;;;;;;12.17;2.63;;;4.00;80.60;;;;;;5046384;28;20064;-74
2021/04/08 00:19:07;;;;;;;12.47;2.30;;;4.00;80.60;;;;;;5045870;28;20035;-74
2021/04/08 00:21:33;;;;;;;10.50;2.00;;;4.00;80.60;;;;;;5030214;28;20152;-74
2021/04/08 00:23:59;;;;;;;8.17;2.00;;;4.00;80.30;;;;;;5045879;28;20565;-74
2021/04/08 00:26:24;;;;;;;13.73;2.70;;;4.00;80.30;;;;;;5063110;28;20040;-74
2021/04/08 00:28:50;;;;;;;7.33;1.93;;;4.00;80.50;;;;;;5030359;28;20443;-75
2021/04/08 00:31:16;;;;;;;8.60;2.07;;;4.00;80.50;;;;;;5031538;28;20034;-75
2021/04/08 00:33:42;;;;;;;8.07;2.13;;;4.00;80.50;;;;;;5030194;28;20025;-74
2021/04/08 00:36:07;;;;;;;7.77;2.17;;;4.00;80.50;;;;;;5029169;28;20136;-75
2021/04/08 00:38:33;;;;;;;7.20;1.67;;;4.00;80.50;;;;;;5029732;28;20568;-75
2021/04/08 00:40:59;;;;;;;5.90;1.27;;;4.10;80.60;;;;;;5009842;28;20030;-75
2021/04/08 00:43:25;;;;;;;7.53;0.80;;;4.10;80.40;;;;;;5011565;28;20029;-74
2021/04/08 00:45:51;;;;;;;12.03;1.63;;;4.00;79.90;;;;;;5020018;28;20030;-75
2021/04/08 00:48:16;;;;;;;7.83;1.67;;;3.90;79.90;;;;;;5029713;28;20073;-74
2021/04/08 00:50:42;;;;;;;9.03;1.10;;;3.80;80.00;;;;;;5030103;28;20046;-74
2021/04/08 00:53:14;;;;;;;8.37;1.60;;;3.80;80.00;;;;;;5028817;28;20710;-75
2021/04/08 00:55:42;;;;;;;6.93;1.20;;;3.80;80.20;;;;;;5047211;28;20057;-74
2021/04/08 00:58:08;;;;;;;11.00;1.50;;;3.80;80.20;;;;;;5030004;28;20124;-75
2021/04/08 01:00:36;;;;;;;9.33;0.83;;;3.90;80.10;;;;;;5046427;28;20061;-74
2021/04/08 01:03:03;;;;;;;7.97;0.93;;;3.90;80.10;;;;;;5031075;28;20152;-74
2021/04/08 01:05:28;;;;;;;5.27;0.90;;;3.90;80.00;;;;;;5033248;28;20041;-74
2021/04/08 01:07:54;;;;;;;6.93;0.90;;;3.80;80.10;;;;;;5071520;28;20029;-75
2021/04/08 01:10:23;;;;;;;9.93;0.97;;;3.80;80.00;;;;;;5040826;28;20037;-74
2021/04/08 01:12:57;;;;;;;7.87;1.27;;;3.80;80.40;;;;;;5040917;28;20112;-74
2021/04/08 01:15:23;;;;;;;11.23;2.07;;;3.70;80.50;;;;;;5039649;28;20053;-74
2021/04/08 01:18:20;;;;;;;5.03;1.10;;;3.70;80.70;;;;;;5033312;28;20087;-74
2021/04/08 01:21:04;;;;;;;7.10;1.10;;;3.70;80.80;;;;;;5062484;28;20040;-74
2021/04/08 01:23:39;;;;;;;4.50;0.90;;;3.70;80.90;;;;;;5030364;28;20033;-74
2021/04/08 01:26:29;;;;;;;6.93;0.90;;;3.80;80.90;;;;;;5029586;28;20152;-74
2021/04/08 01:29:19;;;;;;;5.37;1.20;;;3.80;81.00;;;;;;5028447;28;20071;-74
2021/04/08 01:31:46;;;;;;;5.00;0.90;;;3.80;81.10;;;;;;5030434;28;20037;-74
2021/04/08 01:34:14;;;;;;;7.40;0.80;;;3.70;81.10;;;;;;5028191;28;20022;-74
2021/04/08 01:36:42;;;;;;;7.13;0.80;;;3.80;81.20;;;;;;5045065;28;20021;-74
2021/04/08 01:39:11;;;;;;;4.27;0.87;;;3.70;81.20;;;;;;5044532;28;20037;-73
2021/04/08 01:41:39;;;;;;;7.63;1.00;;;3.70;81.30;;;;;;5044997;28;20117;-74
2021/04/08 01:44:08;;;;;;;6.57;1.43;;;3.80;81.20;;;;;;5044823;28;20029;-73
2021/04/08 01:46:41;;;;;;;6.07;0.90;;;3.70;81.00;;;;;;5012334;28;20113;-74
2021/04/08 01:49:08;;;;;;;6.47;1.27;;;3.60;81.10;;;;;;5044431;28;20049;-73
2021/04/08 01:51:35;;;;;;;7.13;1.10;;;3.70;81.10;;;;;;5011728;28;20053;-74
2021/04/08 01:54:03;;;;;;;7.27;0.93;;;3.70;81.20;;;;;;5027824;28;20026;-74
2021/04/08 01:56:40;;;;;;;6.87;0.60;;;3.70;81.10;;;;;;5028792;28;20063;-74
2021/04/08 01:59:07;;;;;;;4.97;1.07;;;3.70;81.10;;;;;;5029142;28;20095;-74
2021/04/08 02:01:34;;;;;;;6.57;0.90;;;3.70;81.20;;;;;;5029726;28;20072;-74
2021/04/08 02:04:02;;;;;;;7.37;0.97;;;3.80;81.30;;;;;;5011387;28;20026;-74
2021/04/08 02:06:29;;;;;;;5.50;0.90;;;3.80;81.20;;;;;;5028477;28;20061;-74
2021/04/08 02:08:55;;;;;;;5.93;1.33;;;3.70;80.90;;;;;;5028598;28;20060;-74
2021/04/08 02:11:24;;;;;;;7.70;1.13;;;3.70;81.10;;;;;;5012743;28;20124;-74
2021/04/08 02:13:50;;;;;;;5.77;0.80;;;3.70;81.40;;;;;;5033948;28;20155;-74
2021/04/08 02:16:20;;;;;;;7.77;1.10;;;3.80;81.30;;;;;;5031308;28;20049;-74
2021/04/08 02:18:49;;;;;;;8.33;1.33;;;3.80;81.10;;;;;;5033532;28;20034;-74
2021/04/08 02:21:18;;;;;;;7.63;1.30;;;3.80;81.00;;;;;;5033006;28;20148;-73
2021/04/08 02:23:46;;;;;;;6.63;1.00;;;3.80;81.10;;;;;;5032292;28;20418;-74
2021/04/08 02:26:17;;;;;;;7.33;0.90;;;3.90;81.10;;;;;;5031436;28;20500;-74
2021/04/08 02:28:44;;;;;;;6.03;0.87;;;3.90;80.70;;;;;;5033475;28;20043;-74
2021/04/08 02:31:10;;;;;;;7.40;1.30;;;3.90;80.70;;;;;;5047752;28;20476;-75
2021/04/08 02:33:37;;;;;;;7.77;1.40;;;3.90;80.90;;;;;;5033512;28;20029;-74
2021/04/08 02:36:03;;;;;;;8.33;1.00;;;4.10;81.00;;;;;;5033217;28;20481;-75
2021/04/08 02:38:31;;;;;;;6.77;0.90;;;4.10;80.70;;;;;;5048758;28;20441;-74
2021/04/08 02:41:08;;;;;;;7.57;1.43;;;4.10;80.50;;;;;;5033075;28;20029;-74
2021/04/08 02:43:35;;;;;;;5.60;1.13;;;4.10;80.60;;;;;;5016346;28;20029;-74
2021/04/08 02:46:01;;;;;;;11.87;1.40;;;4.10;80.60;;;;;;5031135;28;20051;-75
2021/04/08 02:48:27;;;;;;;8.23;1.63;;;4.10;80.40;;;;;;5031289;28;20090;-74
2021/04/08 02:51:00;;;;;;;6.67;1.20;;;4.10;80.60;;;;;;5031999;28;20416;-74
2021/04/08 02:53:49;;;;;;;6.50;1.70;;;4.10;80.80;;;;;;5032506;28;20057;-74
2021/04/08 02:56:32;;;;;;;11.67;1.63;;;4.20;80.90;;;;;;5030611;28;20112;-74
2021/04/08 02:59:09;;;;;;;7.60;1.75;;;4.20;80.60;;;;;;5030869;28;20051;-76
2021/04/08 03:01:44;;;;;;;4.43;1.30;;;4.20;80.60;;;;;;5026388;28;20179;-75
2021/04/08 03:04:15;;;;;;;7.63;1.90;;;4.20;80.70;;;;;;5030741;28;20029;-75
2021/04/08 03:06:42;;;;;;;8.37;1.70;;;4.20;80.60;;;;;;5032831;28;20049;-74
2021/04/08 03:09:08;;;;;;;7.90;1.40;;;4.30;80.70;;;;;;5030774;28;20034;-76
2021/04/08 03:11:35;;;;;;;7.00;2.00;;;4.30;80.60;;;;;;5031740;28;20124;-73
2021/04/08 03:14:06;;;;;;;9.10;1.70;;;4.30;80.70;;;;;;5031492;28;20330;-73
2021/04/08 03:16:47;;;;;;;10.10;1.77;;;4.30;80.50;;;;;;5032206;28;20025;-74
2021/04/08 03:19:20;;;;;;;9.30;2.17;;;4.40;80.40;;;;;;5031664;28;20033;-73
2021/04/08 03:21:46;;;;;;;;;;;4.30;80.30;;;;;;5031409;28;20033;-74
2021/04/08 03:24:13;;;;;;;12.53;2.37;;;4.40;80.40;;;;;;5031228;28;19959;-74
2021/04/08 03:26:39;;;;;;;11.00;2.70;;;4.40;80.20;;;;;;5032149;28;20136;-74
2021/04/08 03:29:07;;;;;;;9.07;2.63;;;4.40;80.20;;;;;;5032197;28;20034;-74
2021/04/08 03:31:33;;;;;;;9.77;2.43;;;4.30;80.00;;;;;;5014095;28;20033;-73
2021/04/08 03:34:00;;;;;;;10.57;3.20;;;4.40;80.10;;;;;;5031743;28;20029;-74
2021/04/08 03:36:27;;;;;;;5.93;2.17;;;4.40;79.80;;;;;;5031409;28;20033;-74
2021/04/08 03:38:54;;;;;;;8.73;3.73;;;4.40;79.90;;;;;;5014479;28;20057;-74
2021/04/08 03:41:22;;;;;;;10.90;3.00;;;4.40;79.90;;;;;;5031433;28;20052;-74
2021/04/08 03:43:48;;;;;;;8.40;3.63;;;4.40;79.60;;;;;;5032375;28;20029;-74
2021/04/08 03:46:15;;;;;;;11.33;3.70;;;4.40;79.30;;;;;;5030961;28;20040;-74
2021/04/08 03:48:44;;;;;;;12.97;3.60;;;4.30;79.30;;;;;;5030989;28;20034;-74
2021/04/08 03:51:10;;;;;;;12.20;4.43;;;4.40;79.30;;;;;;5031400;28;20564;-75
2021/04/08 03:53:38;;;;;;;10.23;3.80;;;4.40;79.20;;;;;;5030664;28;20025;-75
2021/04/08 03:56:05;;;;;;;10.77;3.73;;;4.40;79.20;;;;;;5031856;28;20056;-73
2021/04/08 03:58:33;;;;;;;7.90;3.80;;;4.40;79.10;;;;;;5029104;28;20037;-74
2021/04/08 04:00:59;;;;;;;7.33;3.63;;;4.40;78.70;;;;;;5032158;28;20056;-74
2021/04/08 04:03:26;;;;;;;8.90;4.50;;;4.40;78.80;;;;;;5029618;28;20050;-74
2021/04/08 04:05:51;;;;;;;13.10;4.40;;;4.40;78.80;;;;;;5013306;28;20042;-74
2021/04/08 04:08:17;;;;;;;10.37;4.20;;;4.40;78.40;;;;;;5017172;28;20092;-75
2021/04/08 04:10:43;;;;;;;10.93;4.17;;;4.30;78.40;;;;;;5027449;28;20481;-75
2021/04/08 04:13:14;;;;;;;12.20;4.90;;;4.30;78.80;;;;;;5011773;28;20025;-74
2021/04/08 04:15:44;;;;;;;12.47;4.30;;;4.20;78.50;;;;;;5011856;28;20034;-74
2021/04/08 04:18:12;;;;;;;10.57;4.57;;;4.20;78.60;;;;;;5010060;28;20104;-74
2021/04/08 04:20:38;;;;;;;9.30;3.97;;;4.20;78.50;;;;;;5043469;28;20040;-74
2021/04/08 04:23:04;;;;;;;6.63;3.73;;;4.10;78.50;;;;;;5011933;28;20390;-74
2021/04/08 04:25:31;;;;;;;8.10;4.10;;;4.10;78.60;;;;;;5010730;28;20026;-74
2021/04/08 04:27:57;;;;;;;12.27;5.10;;;4.20;78.60;;;;;;5014873;28;20037;-74
2021/04/08 04:30:23;;;;;;;7.87;4.60;;;4.10;78.50;;;;;;5030266;28;20377;-74
2021/04/08 04:32:48;;;;;;;15.23;5.30;;;4.10;78.50;;;;;;5029785;28;20079;-74
2021/04/08 04:35:17;;;;;;;11.27;5.03;;;4.00;78.20;;;;;;5028715;28;20036;-74
2021/04/08 04:37:42;;;;;;;13.40;4.47;;;4.00;78.40;;;;;;5029588;28;20803;-74
2021/04/08 04:40:09;;;;;;;11.13;5.10;;;4.10;78.60;;;;;;5013100;28;20049;-74
2021/04/08 04:42:34;;;;;;;7.77;4.63;;;4.00;78.00;;;;;;5030113;28;20013;-74
2021/04/08 04:45:01;;;;;;;8.60;4.53;;;4.00;78.20;;;;;;5029804;28;20026;-74
2021/04/08 04:47:26;;;;;;;7.60;4.10;;;3.90;78.30;;;;;;5030209;28;20037;-74
2021/04/08 04:49:52;;;;;;;7.90;4.43;;;4.00;78.70;;;;;;5030736;28;20052;-74
2021/04/08 04:52:18;;;;;;;7.33;4.33;;;4.10;78.70;;;;;;5028393;28;20094;-74
2021/04/08 04:54:44;;;;;;;8.73;4.60;;;4.10;78.70;;;;;;5029425;28;20112;-74
2021/04/08 04:57:10;;;;;;;6.10;3.80;;;4.20;78.60;;;;;;5012716;28;20037;-74
2021/04/08 04:59:35;;;;;;;8.50;4.37;;;4.20;78.30;;;;;;5027861;28;20584;-74
2021/04/08 05:02:01;;;;;;;10.03;4.30;;;4.20;78.30;;;;;;5029286;28;20080;-74
2021/04/08 05:04:27;;;;;;;7.23;4.27;;;4.20;78.50;;;;;;5030022;28;20095;-73
2021/04/08 05:06:52;;;;;;;9.13;4.27;;;4.30;78.60;;;;;;5012372;28;20406;-74
2021/04/08 05:09:18;;;;;;;9.17;4.53;;;4.30;78.40;;;;;;5012364;28;20536;-75
2021/04/08 05:11:44;;;;;;;9.80;4.93;;;4.30;78.40;;;;;;5030091;28;20032;-75
2021/04/08 05:14:09;;;;;;;15.17;5.20;;;4.30;78.20;;;;;;5025638;28;20406;-74
2021/04/08 05:16:35;;;;;;;12.27;4.60;;;4.30;77.90;;;;;;5042886;28;20034;-75
2021/04/08 05:19:01;;;;;;;9.27;4.30;;;4.30;78.20;;;;;;5025868;28;20038;-74
2021/04/08 05:21:27;;;;;;;9.50;5.00;;;4.30;78.30;;;;;;5009842;28;20041;-74
2021/04/08 05:23:52;;;;;;;8.83;4.23;;;4.40;78.20;;;;;;5033963;28;20048;-75
2021/04/08 05:26:18;;;;;;;8.63;4.27;;;4.30;77.90;;;;;;5029463;28;20026;-74
2021/04/08 05:28:44;;;;;;;8.47;4.17;;;4.40;78.20;;;;;;5012407;28;20037;-76
2021/04/08 05:31:09;;;;;;;7.80;4.30;;;4.40;78.10;;;;;;5029092;28;20426;-75
2021/04/08 05:33:35;;;;;;;12.33;4.50;;;4.50;77.70;;;;;;5011835;28;20765;-75
2021/04/08 05:36:01;;;;;;;6.37;4.30;;;4.50;77.50;;;;;;5028919;28;20477;-75
2021/04/08 05:38:27;;;;;;;9.87;4.20;;;4.60;77.40;;;;;;5011407;28;20095;-74
2021/04/08 05:40:53;;;;;;;6.57;3.90;;;4.60;77.10;;;;;;5012408;28;20026;-75
2021/04/08 05:43:18;;;;;;;12.50;4.70;;;4.60;77.10;;;;;;5029095;28;20508;-75
2021/04/08 05:45:45;;;;;;;8.77;3.70;;;4.70;76.80;;;;;;5011557;28;20030;-75
2021/04/08 05:48:13;;;;;;;10.73;4.63;;;4.80;76.60;;;;;;5029475;28;20025;-75
2021/04/08 05:50:39;;;;;;;8.10;3.70;;;5.00;76.40;;;;;;5028640;28;20362;-75
2021/04/08 05:53:05;;;;;;;10.03;4.10;;;5.10;76.30;;;;;;5027254;28;20056;-75
2021/04/08 05:55:31;;;;;;;9.47;3.83;;;5.20;75.70;;;;;;5027994;28;20065;-76
2021/04/08 05:57:57;;;;;;;7.30;3.77;;;5.20;75.60;;;;;;5013346;28;20409;-75
2021/04/08 06:00:23;;;;;;;6.87;4.10;;;5.20;75.80;;;;;;5025597;28;20137;-76
2021/04/08 06:02:49;;;;;;;6.10;3.77;;;5.40;75.40;;;;;;5011161;28;20095;-75
2021/04/08 06:05:15;;;;;;;7.10;3.83;;;5.50;75.20;;;;;;5010530;28;20057;-75
2021/04/08 06:07:42;;;;;;;7.20;3.67;;;5.60;74.80;;;;;;5025529;28;20365;-75
2021/04/08 06:10:09;;;;;;;8.20;4.20;;;5.70;74.70;;;;;;5018079;28;20037;-76
2021/04/08 06:12:34;;;;;;;13.87;4.40;;;5.90;74.30;;;;;;5029098;28;20061;-75
2021/04/08 06:15:00;;;;;;;12.83;3.70;;;6.00;73.80;;;;;;5034897;28;20071;-74
2021/04/08 06:17:26;;;;;;;8.17;3.87;;;6.00;73.60;;;;;;5029339;28;20038;-76
2021/04/08 06:19:52;;;;;;;8.93;3.80;;;5.90;72.80;;;;;;5011077;28;20077;-75
2021/04/08 06:22:18;;;;;;;6.63;3.53;;;6.00;73.40;;;;;;5025100;28;20041;-75
2021/04/08 06:24:44;;;;;;;7.40;3.80;;;6.10;73.50;;;;;;5021013;28;20064;-75
2021/04/08 06:27:10;;;;;;;8.23;3.50;;;6.10;72.80;;;;;;5018819;28;20438;-75
2021/04/08 06:29:36;;;;;;;7.90;3.70;;;6.10;72.40;;;;;;5026690;28;20025;-76
2021/04/08 06:32:04;;;;;;;8.53;3.43;;;6.10;72.60;;;;;;5024648;28;20040;-75
2021/04/08 06:34:30;;;;;;;11.53;3.33;;;6.10;72.80;;;;;;5029112;28;20116;-75
2021/04/08 06:36:56;;;;;;;6.33;3.60;;;6.20;73.10;;;;;;5028323;28;20116;-76
2021/04/08 06:39:22;;;;;;;10.90;3.70;;;6.30;72.10;;;;;;5028203;28;20157;-76
2021/04/08 06:41:49;;;;;;;7.50;3.33;;;6.40;71.70;;;;;;5028654;28;20647;-76
2021/04/08 06:44:21;;;;;;;8.73;3.57;;;6.50;71.70;;;;;;5028577;28;20026;-76
2021/04/08 06:46:51;;;;;;;9.27;3.47;;;6.60;71.10;;;;;;5027070;28;20171;-76
2021/04/08 06:49:53;;;;;;;7.47;2.80;;;6.70;71.00;;;;;;5018856;28;20281;-77
2021/04/08 06:52:20;;;;;;;7.03;3.73;;;6.80;71.10;;;;;;5016142;28;20441;-76
2021/04/08 06:54:46;;;;;;;10.70;3.50;;;7.00;70.00;;;;;;5043742;28;20040;-77
2021/04/08 06:57:19;;;;;;;8.93;4.00;;;6.90;69.60;;;;;;5048766;28;20029;-77
2021/04/08 06:59:46;;;;;;;14.00;5.10;;;6.90;69.60;;;;;;5034651;28;20029;-77
2021/04/08 07:02:20;;;;;;;15.27;5.93;;;7.00;69.50;;;;;;5030731;28;20056;-77
2021/04/08 07:04:46;;;;;;;11.83;5.40;;;7.10;69.30;;;;;;5011194;28;20032;-77
2021/04/08 07:07:14;;;;;;;11.30;5.67;;;7.20;69.10;;;;;;5011402;28;20144;-76
2021/04/08 07:09:40;;;;;;;10.17;6.43;;;7.30;69.00;;;;;;5010752;28;20379;-75
2021/04/08 07:12:08;;;;;;;13.93;6.63;;;7.50;68.80;;;;;;5012716;28;20050;-75
2021/04/08 07:14:34;;;;;;;13.47;6.87;;;7.70;68.20;;;;;;5010676;28;20478;-76
2021/04/08 07:17:00;;;;;;;14.97;6.77;;;7.90;67.00;;;;;;5022285;28;20029;-76
2021/04/08 07:19:29;;;;;;;15.93;8.60;;;8.20;66.90;;;;;;5031173;28;20044;-76
2021/04/08 07:22:00;;;;;;;12.60;7.23;;;9.00;65.80;;;;;;5031186;28;20439;-77
2021/04/08 07:24:26;;;;;;;13.07;7.67;;;9.60;63.00;;;;;;5029546;28;20037;-77
2021/04/08 07:26:54;;;;;;;13.77;6.70;;;10.00;61.30;;;;;;5030927;28;20049;-76
2021/04/08 07:29:22;;;;;;;12.33;8.07;;;10.20;60.40;;;;;;5032376;28;20053;-77
2021/04/08 07:31:48;;;;;;;10.97;5.70;;;10.30;59.90;;;;;;5030334;28;20033;-77
2021/04/08 07:34:32;;;;;;;16.20;7.37;;;10.20;58.00;;;;;;5030048;28;20076;-76
2021/04/08 07:36:57;;;;;;;12.10;7.47;;;10.00;58.90;;;;;;5028663;28;20426;-77
2021/04/08 07:39:23;;;;;;;14.00;7.40;;;10.20;58.80;;;;;;5030412;28;20105;-76
2021/04/08 07:42:01;;;;;;;9.87;5.27;;;10.30;58.40;;;;;;5028850;28;20030;-76
2021/04/08 07:44:27;;;;;;;10.60;5.67;;;10.40;56.20;;;;;;5031708;28;20068;-75
2021/04/08 07:46:54;;;;;;;14.13;9.00;;;10.40;56.80;;;;;;5026054;28;20030;-76
2021/04/08 07:49:29;;;;;;;13.40;5.70;;;11.00;58.10;;;;;;5012039;28;20037;-77
2021/04/08 07:51:56;;;;;;;21.47;9.93;;;11.80;54.30;;;;;;5025999;28;20238;-76
2021/04/08 07:54:22;;;;;;;11.40;7.43;;;11.90;55.00;;;;;;5029561;28;20042;-76
2021/04/08 07:56:49;;;;;;;16.23;9.07;;;11.90;52.40;;;;;;5022758;28;20470;-77
2021/04/08 07:59:26;;;;;;;16.40;7.00;;;11.70;53.10;;;;;;5030040;28;20071;-76
2021/04/08 08:02:06;;;;;;;13.13;6.30;;;11.30;51.80;;;;;;5029377;28;20030;-75
2021/04/08 08:04:32;;;;;;;22.57;11.53;;;11.10;52.50;;;;;;5045127;28;20065;-77
2021/04/08 08:06:58;;;;;;;13.40;6.40;;;10.90;54.60;;;;;;5028918;28;20101;-76
2021/04/08 08:09:35;;;;;;;13.80;7.77;;;11.00;54.60;;;;;;5029185;28;20037;-76
2021/04/08 08:12:09;;;;;;;19.60;10.60;;;10.80;54.00;;;;;;5028499;28;20116;-78
2021/04/08 08:14:41;;;;;;;12.10;5.93;;;10.80;55.70;;;;;;5028914;28;20030;-76
2021/04/08 08:17:09;;;;;;;20.03;8.47;;;10.90;54.60;;;;;;5029228;28;20112;-77
2021/04/08 08:19:37;;;;;;;13.47;5.23;;;10.80;54.10;;;;;;5029790;28;20034;-78
2021/04/08 08:22:04;;;;;;;9.10;5.83;;;10.70;53.10;;;;;;5029015;28;20024;-78
2021/04/08 08:24:31;;;;;;;12.57;5.37;;;10.80;53.70;;;;;;5029569;28;20087;-76
2021/04/08 08:26:57;;;;;;;13.23;5.87;;;11.00;53.80;;;;;;5028668;28;20029;-76
2021/04/08 08:29:28;;;;;;;12.03;6.37;;;10.80;52.90;;;;;;5029812;28;20041;-77
2021/04/08 08:31:55;;;;;;;15.93;8.97;;;10.70;54.90;;;;;;5029903;28;20033;-76
2021/04/08 08:34:22;;;;;;;15.70;7.37;;;10.60;55.60;;;;;;5029719;28;20350;-76
2021/04/08 08:36:58;;;;;;;15.23;7.73;;;10.60;55.50;;;;;;5011921;28;20029;-76
2021/04/08 08:39:27;;;;;;;14.03;7.00;;;10.50;55.30;;;;;;5030729;28;20071;-76
2021/04/08 08:41:54;;;;;;;11.90;6.00;;;10.50;55.50;;;;;;5029617;28;20034;-78
2021/04/08 08:44:20;;;;;;;10.50;5.83;;;10.50;54.90;;;;;;5030325;28;20037;-78
2021/04/08 08:46:54;;;;;;;10.37;5.90;;;10.60;54.00;;;;;;5028598;28;20025;-79
2021/04/08 08:49:26;;;;;;;9.80;5.10;;;10.80;53.70;;;;;;5030707;28;20502;-76
2021/04/08 08:51:57;;;;;;;7.82;4.18;;;10.90;53.20;;;;;;5028131;28;20211;-76
2021/04/08 08:54:23;;;;;;;11.93;6.27;;;10.90;51.50;;;;;;5030443;28;20104;-76
2021/04/08 08:56:50;;;;;;;10.10;4.80;;;11.00;53.20;;;;;;5029985;28;20072;-77
2021/04/08 08:59:16;;;;;;;7.37;3.97;;;11.10;52.20;;;;;;5029193;28;20037;-77
2021/04/08 09:01:42;;;;;;;7.40;4.10;;;11.20;51.40;;;;;;5029340;28;20425;-77
2021/04/08 09:04:08;;;;;;;10.07;4.83;;;11.10;50.80;;;;;;5012166;28;20029;-75
2021/04/08 09:06:35;;;;;;;8.90;5.33;;;11.10;51.10;;;;;;5028993;28;20056;-78
2021/04/08 09:09:08;;;;;;;9.83;5.23;;;11.10;53.20;;;;;;5027342;28;20037;-76
2021/04/08 09:11:36;;;;;;;6.80;4.15;;;11.30;52.10;;;;;;5051062;28;20095;-78
2021/04/08 09:14:02;;;;;;;8.90;4.23;;;11.40;51.30;;;;;;5028899;28;20087;-76
2021/04/08 09:16:29;;;;;;;7.67;3.40;;;11.50;52.10;;;;;;5030978;28;20040;-75
2021/04/08 09:19:06;;;;;;;7.40;3.53;;;11.50;49.80;;;;;;5029698;28;20037;-76
2021/04/08 09:21:52;;;;;;;9.93;5.07;;;11.60;49.20;;;;;;5028024;28;20035;-75
2021/04/08 09:24:20;;;;;;;6.80;4.40;;;11.70;49.80;;;;;;5036824;28;20025;-77
2021/04/08 09:26:48;;;;;;;8.97;4.80;;;12.00;48.90;;;;;;5028305;28;20350;-76
2021/04/08 09:29:47;;;;;;;6.57;3.73;;;12.20;48.50;;;;;;5028327;28;20066;-75
2021/04/08 09:32:24;;;;;;;7.27;3.50;;;12.50;46.60;;;;;;5027796;28;20033;-76
2021/04/08 09:35:11;;;;;;;6.73;3.83;;;12.70;46.40;;;;;;5029884;28;20029;-76
2021/04/08 09:37:51;;;;;;;6.37;3.80;;;13.10;45.90;;;;;;5028463;28;20048;-75
2021/04/08 09:40:34;;;;;;;7.03;3.63;;;13.40;46.10;;;;;;5029283;28;20477;-76
2021/04/08 09:43:16;;;;;;;4.05;3.05;;;13.60;41.10;;;;;;5028921;28;20021;-77
2021/04/08 09:45:44;;;;;;;5.03;2.50;;;14.00;43.10;;;;;;5030386;28;20367;-76
2021/04/08 09:48:22;;;;;;;5.90;2.80;;;14.40;40.40;;;;;;5028734;28;20465;-76
2021/04/08 09:51:01;;;;;;;5.15;2.95;;;14.40;36.80;;;;;;5031413;28;20052;-77
2021/04/08 09:53:53;;;;;;;5.28;3.25;;;14.40;39.10;;;;;;5029120;28;20033;-76
2021/04/08 09:56:19;;;;;;;3.63;2.30;;;14.50;38.10;;;;;;5028783;28;20045;-77
2021/04/08 09:58:56;;;;;;;5.30;2.75;;;14.30;34.70;;;;;;5013039;28;20033;-77
2021/04/08 10:01:22;;;;;;;3.88;2.42;;;14.10;37.40;;;;;;5028490;28;20818;-77
2021/04/08 10:03:47;;;;;;;6.93;2.85;;;13.90;40.30;;;;;;5028258;28;20038;-77
2021/04/08 10:06:14;;;;;;;3.88;2.15;;;13.70;38.80;;;;;;5011203;28;20470;-75
2021/04/08 10:08:40;;;;;;;7.55;2.53;;;13.30;38.20;;;;;;5028808;28;20030;-78
2021/04/08 10:11:06;;;;;;;2.85;2.10;;;13.10;37.10;;;;;;5029115;28;20095;-76
2021/04/08 10:13:36;;;;;;;7.82;2.38;;;13.10;39.40;;;;;;5029716;28;20120;-76
2021/04/08 10:16:09;;;;;;;5.03;2.20;;;13.20;40.20;;;;;;5027721;28;20040;-77
2021/04/08 10:18:35;;;;;;;4.60;2.42;;;13.30;39.80;;;;;;5029645;28;20474;-76
2021/04/08 10:21:03;;;;;;;3.97;2.33;;;13.40;39.60;;;;;;5029025;28;20029;-78
2021/04/08 10:23:33;;;;;;;5.00;2.33;;;13.40;39.00;;;;;;5029092;28;20025;-77
2021/04/08 10:26:16;;;;;;;4.93;2.90;;;13.30;40.10;;;;;;5029189;28;20026;-78
2021/04/08 10:28:48;;;;;;;6.63;2.55;;;13.30;40.40;;;;;;5028333;28;20133;-77
2021/04/08 10:31:19;;;;;;;4.07;2.20;;;13.50;38.90;;;;;;5027228;28;20076;-77
2021/04/08 10:33:50;;;;;;;4.63;2.37;;;13.60;36.40;;;;;;5031676;28;20030;-77
2021/04/08 10:36:30;;;;;;;6.28;2.88;;;13.80;38.50;;;;;;5031383;28;20116;-77
2021/04/08 10:39:07;;;;;;;4.35;2.40;;;13.90;38.90;;;;;;5031949;28;20073;-77
2021/04/08 10:41:33;;;;;;;4.32;2.35;;;13.80;37.20;;;;;;5031687;28;20045;-76
2021/04/08 10:44:18;;;;;;;4.70;2.47;;;13.70;36.30;;;;;;5033344;28;20540;-77
2021/04/08 10:46:44;;;;;;;4.22;2.70;;;13.70;37.70;;;;;;5031194;28;20026;-77
2021/04/08 10:49:09;;;;;;;4.82;2.35;;;13.60;37.30;;;;;;5030161;28;20439;-77
2021/04/08 10:51:35;;;;;;;6.07;2.60;;;13.50;36.60;;;;;;5030753;28;20038;-78
2021/04/08 10:54:02;;;;;;;4.88;2.90;;;13.40;36.30;;;;;;5064229;28;20508;-77
2021/04/08 10:56:27;;;;;;;6.00;3.47;;;13.40;38.10;;;;;;5031976;28;20044;-78
2021/04/08 10:58:53;;;;;;;4.95;3.03;;;13.60;39.10;;;;;;5031000;28;20046;-78
2021/04/08 11:01:28;;;;;;;5.38;2.75;;;13.70;37.50;;;;;;5014257;28;20025;-79
2021/04/08 11:04:05;;;;;;;5.93;2.78;;;13.70;36.00;;;;;;5032323;28;20108;-76
2021/04/08 11:06:32;;;;;;;4.47;2.72;;;13.70;37.50;;;;;;5030641;28;20091;-77
2021/04/08 11:08:58;;;;;;;5.10;3.15;;;13.70;37.10;;;;;;5032206;28;20037;-77
2021/04/08 11:11:25;;;;;;;5.43;3.25;;;13.50;36.70;;;;;;5029946;28;20649;-77
2021/04/08 11:13:51;;;;;;;3.95;3.33;;;13.40;38.10;;;;;;5032270;28;20023;-76
2021/04/08 11:16:17;;;;;;;5.10;3.45;;;13.20;37.80;;;;;;5030301;28;20071;-79
2021/04/08 11:18:44;;;;;;;6.40;3.40;;;13.20;37.90;;;;;;5030825;28;20041;-77
2021/04/08 11:21:10;;;;;;;4.03;3.28;;;13.30;37.00;;;;;;5029843;28;20037;-78
2021/04/08 11:23:36;;;;;;;5.50;3.40;;;13.30;37.30;;;;;;5013708;28;20481;-77
2021/04/08 11:26:07;;;;;;;9.30;4.17;;;13.30;36.50;;;;;;5031103;28;20450;-78
2021/04/08 11:28:41;;;;;;;5.07;3.33;;;13.10;36.20;;;;;;5030899;28;20029;-78
2021/04/08 11:31:14;;;;;;;5.10;3.33;;;13.20;37.00;;;;;;5014774;28;20037;-78
2021/04/08 11:33:40;;;;;;;7.10;3.60;;;13.20;37.40;;;;;;5013888;28;20743;-78
2021/04/08 11:36:17;;;;;;;5.37;4.13;;;13.20;37.40;;;;;;5030050;28;20083;-77
2021/04/08 11:38:42;;;;;;;5.37;4.50;;;13.20;37.80;;;;;;5030476;28;20099;-78
2021/04/08 11:41:10;;;;;;;5.47;4.13;;;13.10;36.00;;;;;;5030091;28;20029;-78
2021/04/08 11:43:41;;;;;;;6.45;4.50;;;13.10;36.40;;;;;;5013783;28;20439;-78
2021/04/08 11:46:24;;;;;;;8.63;3.97;;;13.20;36.30;;;;;;5031317;28;20030;-77
2021/04/08 11:48:49;;;;;;;7.18;4.45;;;13.40;38.30;;;;;;5031878;28;20036;-78
2021/04/08 11:51:19;;;;;;;7.43;4.75;;;13.60;38.60;;;;;;5029425;28;20462;-79
2021/04/08 11:53:45;;;;;;;7.00;5.13;;;13.60;36.70;;;;;;5029812;28;20026;-77
2021/04/08 11:56:25;;;;;;;7.78;4.80;;;13.50;36.30;;;;;;5029459;28;20068;-76
2021/04/08 11:58:50;;;;;;;8.07;4.88;;;13.40;36.60;;;;;;5030270;28;20052;-79
2021/04/08 12:01:18;;;;;;;9.90;5.93;;;13.30;37.50;;;;;;5030317;28;20470;-78
2021/04/08 12:03:47;;;;;;;8.23;5.53;;;13.40;38.40;;;;;;5032529;28;20040;-79
2021/04/08 12:06:22;;;;;;;6.43;5.25;;;13.60;37.80;;;;;;5030408;28;20029;-79
2021/04/08 12:08:55;;;;;;;6.72;5.32;;;13.80;38.00;;;;;;5062769;28;20536;-76
2021/04/08 12:11:22;;;;;;;9.90;5.55;;;14.00;37.60;;;;;;5028316;28;20041;-78
2021/04/08 12:14:05;;;;;;;7.47;5.32;;;14.00;36.20;;;;;;5031033;28;20036;-77
2021/04/08 12:16:30;;;;;;;7.38;5.07;;;13.90;36.60;;;;;;5028435;28;20277;-77
2021/04/08 12:18:57;;;;;;;7.70;5.32;;;13.70;36.80;;;;;;5029543;28;20478;-78
2021/04/08 12:21:26;;;;;;;8.43;5.63;;;13.60;36.90;;;;;;5029751;28;20061;-78
2021/04/08 12:23:52;;;;;;;8.30;6.20;;;13.50;37.00;;;;;;5012260;28;20073;-77
2021/04/08 12:26:35;;;;;;;9.13;5.30;;;13.50;37.00;;;;;;5012197;28;20136;-78
2021/04/08 12:29:01;;;;;;;7.10;5.40;;;13.50;37.50;;;;;;5031215;28;20021;-77
2021/04/08 12:31:26;;;;;;;8.07;5.40;;;13.60;38.00;;;;;;5030285;28;20034;-77
2021/04/08 12:33:52;;;;;;;6.75;5.45;;;13.50;36.80;;;;;;5029897;28;20067;-77
2021/04/08 12:36:18;;;;;;;6.38;4.85;;;13.50;36.10;;;;;;5061508;28;20036;-77
2021/04/08 12:38:43;;;;;;;8.50;5.30;;;13.30;36.60;;;;;;5028322;28;20048;-77
2021/04/08 12:41:09;;;;;;;8.45;4.85;;;13.10;36.30;;;;;;5012417;28;20029;-77
2021/04/08 12:43:35;;;;;;;8.07;5.20;;;13.10;37.10;;;;;;5028301;28;20033;-77
2021/04/08 12:46:02;;;;;;;7.63;5.13;;;13.10;37.50;;;;;;5030558;28;20030;-79
2021/04/08 12:48:28;;;;;;;9.85;5.32;;;13.20;37.30;;;;;;5028862;28;20041;-78
2021/04/08 12:50:56;;;;;;;8.52;4.88;;;13.40;36.80;;;;;;5030989;28;20470;-79
2021/04/08 12:53:24;;;;;;;6.22;4.20;;;13.70;37.30;;;;;;5012751;28;20050;-79
2021/04/08 12:55:51;;;;;;;7.53;5.70;;;13.80;37.80;;;;;;5030157;28;20033;-78
2021/04/08 12:58:17;;;;;;;10.48;5.38;;;14.10;36.60;;;;;;5062399;28;20124;-77
2021/04/08 13:00:43;;;;;;;8.52;5.05;;;14.20;36.80;;;;;;5060937;28;20037;-78